createdAt,value
2022-08-22T00:01:02.608Z,11.60
2022-08-22T00:03:07.177Z,10.43
2022-08-22T00:03:35.489Z,8.70
2022-08-22T00:06:11.046Z,6.72
2022-08-22T00:08:42.578Z,7.55
2022-08-22T00:11:15.943Z,9.13
2022-08-22T00:13:46.380Z,10.00
2022-08-22T00:16:15.570Z,9.25
2022-08-22T00:18:46.741Z,7.43
2022-08-22T00:21:17.982Z,6.97
2022-08-22T00:23:49.034Z,9.50
2022-08-22T00:26:20.971Z,7.33
2022-08-22T00:28:51.053Z,10.68
2022-08-22T00:31:23.760Z,8.00
2022-08-22T00:33:54.902Z,7.35
2022-08-22T00:36:26.749Z,11.05
2022-08-22T00:39:09.049Z,8.90
2022-08-22T00:41:51.366Z,12.00
2022-08-22T00:44:31.983Z,6.95
2022-08-22T00:47:04.986Z,9.52
2022-08-22T00:49:44.195Z,9.35
2022-08-22T00:52:19.044Z,7.93
2022-08-22T00:54:54.600Z,8.85
2022-08-22T00:57:32.378Z,6.60
2022-08-22T01:00:08.723Z,8.55
2022-08-22T01:02:42.869Z,9.90
2022-08-22T01:05:25.303Z,11.17
2022-08-22T01:08:05.745Z,7.97
2022-08-22T01:10:41.351Z,11.13
2022-08-22T01:13:22.648Z,9.20
2022-08-22T01:15:52.187Z,7.85
2022-08-22T01:18:35.768Z,8.03
2022-08-22T01:21:27.173Z,7.60
2022-08-22T01:24:09.593Z,9.32
2022-08-22T01:26:55.316Z,7.82
2022-08-22T01:29:49.270Z,7.68
2022-08-22T01:32:34.584Z,9.43
2022-08-22T01:35:25.924Z,6.80
2022-08-22T01:38:12.012Z,9.63
2022-08-22T01:40:57.693Z,6.60
2022-08-22T01:43:51.226Z,10.68
2022-08-22T01:46:35.315Z,9.20
2022-08-22T01:49:08.659Z,8.60
2022-08-22T01:51:41.338Z,8.15
2022-08-22T01:54:12.904Z,6.32
2022-08-22T01:56:43.164Z,8.93
2022-08-22T01:59:12.084Z,9.73
2022-08-22T02:01:46.106Z,7.25
2022-08-22T02:04:17.337Z,7.65
2022-08-22T02:06:51.535Z,10.90
2022-08-22T02:09:27.500Z,6.75
2022-08-22T02:11:56.858Z,8.47
2022-08-22T02:14:30.646Z,7.55
2022-08-22T02:16:59.350Z,7.75
2022-08-22T02:19:37.915Z,10.57
2022-08-22T02:22:19.209Z,8.88
2022-08-22T02:24:51.304Z,10.50
2022-08-22T02:27:24.763Z,8.38
2022-08-22T02:30:07.022Z,9.63
2022-08-22T02:32:38.289Z,7.00
2022-08-22T02:35:08.452Z,9.45
2022-08-22T02:37:44.219Z,8.90
2022-08-22T02:40:15.937Z,7.78
2022-08-22T02:42:46.021Z,7.88
2022-08-22T02:45:19.866Z,7.47
2022-08-22T02:47:51.249Z,7.53
2022-08-22T03:00:32.088Z,9.02
2022-08-22T03:03:03.545Z,7.95
2022-08-22T03:05:42.454Z,6.93
2022-08-22T03:08:13.223Z,7.28
2022-08-22T03:10:44.563Z,7.20
2022-08-22T03:13:12.973Z,7.32
2022-08-22T03:15:49.362Z,7.70
2022-08-22T03:18:21.376Z,7.03
2022-08-22T03:20:53.182Z,8.18
2022-08-22T03:23:27.169Z,8.85
2022-08-22T03:26:00.375Z,10.15
2022-08-22T03:28:29.540Z,6.40
2022-08-22T03:31:00.021Z,8.97
2022-08-22T03:33:28.866Z,8.27
2022-08-22T03:35:59.679Z,7.35
2022-08-22T03:38:29.632Z,6.90
2022-08-22T03:41:04.154Z,8.65
2022-08-22T03:43:40.181Z,10.00
2022-08-22T03:46:33.883Z,8.35
2022-08-22T03:49:12.834Z,10.15
2022-08-22T03:51:54.793Z,8.57
2022-08-22T03:54:41.030Z,8.02
2022-08-22T03:57:24.214Z,10.50
2022-08-22T04:00:02.840Z,9.75
2022-08-22T04:02:43.182Z,8.98
2022-08-22T04:05:25.784Z,8.10
2022-08-22T04:08:04.516Z,11.82
2022-08-22T04:10:40.761Z,10.67
2022-08-22T04:13:24.762Z,8.50
2022-08-22T04:16:10.733Z,8.18
2022-08-22T04:18:54.218Z,9.73
2022-08-22T04:21:32.693Z,7.88
2022-08-22T04:24:18.891Z,8.20
2022-08-22T04:26:49.205Z,10.68
2022-08-22T04:29:18.886Z,8.85
2022-08-22T04:31:48.935Z,9.38
2022-08-22T04:34:21.892Z,9.50
2022-08-22T04:36:53.326Z,9.63
2022-08-22T04:39:22.948Z,9.88
2022-08-22T04:41:52.888Z,8.32
2022-08-22T04:44:22.773Z,8.60
2022-08-22T04:46:53.343Z,7.95
2022-08-22T04:49:25.452Z,10.70
2022-08-22T04:51:55.073Z,8.75
2022-08-22T04:54:39.962Z,9.05
2022-08-22T04:57:12.100Z,8.60
2022-08-22T04:59:39.823Z,8.50
2022-08-22T05:02:09.955Z,7.40
2022-08-22T05:04:40.490Z,8.57
2022-08-22T05:07:11.332Z,7.15
2022-08-22T05:09:42.899Z,7.32
2022-08-22T05:12:12.030Z,6.80
2022-08-22T05:14:41.106Z,6.77
2022-08-22T05:17:10.735Z,7.22
2022-08-22T05:19:47.863Z,7.38
2022-08-22T05:22:18.755Z,7.80
2022-08-22T05:24:48.457Z,6.03
2022-08-22T05:27:18.111Z,8.93
2022-08-22T05:29:47.767Z,9.60
2022-08-22T05:32:20.171Z,8.45
2022-08-22T05:34:49.747Z,6.72
2022-08-22T05:37:21.557Z,8.18
2022-08-22T05:39:52.525Z,7.30
2022-08-22T05:42:23.915Z,9.48
2022-08-22T05:44:51.608Z,8.35
2022-08-22T05:47:22.456Z,6.93
2022-08-22T05:49:56.769Z,8.68
2022-08-22T05:52:31.263Z,9.07
2022-08-22T05:55:05.880Z,9.82
2022-08-22T05:57:35.580Z,10.75
2022-08-22T06:00:07.290Z,9.55
2022-08-22T06:02:41.429Z,7.82
2022-08-22T06:05:12.167Z,8.67
2022-08-22T06:07:42.471Z,5.85
2022-08-22T06:10:17.488Z,11.20
2022-08-22T06:12:49.005Z,9.88
2022-08-22T06:15:20.939Z,8.40
2022-08-22T06:17:49.811Z,8.80
2022-08-22T06:20:20.683Z,7.93
2022-08-22T06:22:52.136Z,8.48
2022-08-22T06:25:22.866Z,8.40
2022-08-22T06:27:50.629Z,8.57
2022-08-22T06:30:18.974Z,9.30
2022-08-22T06:32:59.126Z,6.65
2022-08-22T06:35:51.068Z,6.85
2022-08-22T06:38:19.888Z,8.90
2022-08-22T06:40:47.569Z,5.82
2022-08-22T06:43:15.447Z,7.67
2022-08-22T06:45:43.159Z,7.17
2022-08-22T06:48:16.036Z,6.53
2022-08-22T06:50:46.496Z,6.53
2022-08-22T06:53:16.493Z,7.97
2022-08-22T06:55:47.256Z,7.38
2022-08-22T06:58:17.210Z,6.40
2022-08-22T07:00:53.555Z,7.68
2022-08-22T07:03:35.164Z,8.20
2022-08-22T07:06:04.576Z,6.47
2022-08-22T07:08:38.491Z,6.40
2022-08-22T07:11:09.887Z,8.00
2022-08-22T07:13:39.214Z,9.95
2022-08-22T07:16:08.460Z,8.23
2022-08-22T07:18:36.277Z,7.38
2022-08-22T07:21:08.336Z,6.57
2022-08-22T07:23:40.428Z,6.57
2022-08-22T07:26:15.454Z,7.30
2022-08-22T07:28:51.301Z,8.88
2022-08-22T07:31:30.911Z,6.78
2022-08-22T07:34:04.533Z,8.45
2022-08-22T07:36:40.741Z,8.57
2022-08-22T07:39:15.848Z,7.88
2022-08-22T07:41:48.770Z,6.65
2022-08-22T07:44:18.414Z,7.28
2022-08-22T07:46:51.532Z,6.70
2022-08-22T07:49:22.046Z,6.93
2022-08-22T07:51:53.138Z,7.90
2022-08-22T07:54:27.209Z,8.00
2022-08-22T07:56:59.005Z,7.18
2022-08-22T07:59:28.227Z,6.28
2022-08-22T08:01:58.412Z,6.83
2022-08-22T08:04:27.220Z,7.53
2022-08-22T08:06:57.536Z,7.25
2022-08-22T08:09:26.041Z,6.75
2022-08-22T08:11:54.285Z,7.70
2022-08-22T08:14:22.969Z,7.03
2022-08-22T08:17:01.168Z,5.90
2022-08-22T08:19:29.792Z,5.22
2022-08-22T08:21:59.665Z,6.57
2022-08-22T08:24:41.362Z,10.48
2022-08-22T08:27:50.136Z,6.47
2022-08-22T08:30:19.844Z,8.25
2022-08-22T08:32:49.101Z,5.80
2022-08-22T08:35:20.232Z,6.20
2022-08-22T08:37:51.352Z,5.10
2022-08-22T08:40:24.909Z,5.77
2022-08-22T08:43:17.209Z,8.45
2022-08-22T08:46:11.304Z,6.65
2022-08-22T08:48:48.324Z,6.85
2022-08-22T08:51:19.488Z,5.07
2022-08-22T08:54:09.337Z,8.50
2022-08-22T08:56:47.200Z,7.47
2022-08-22T08:59:25.497Z,7.57
2022-08-22T09:02:09.545Z,8.15
2022-08-22T09:05:05.519Z,7.10
2022-08-22T09:07:43.660Z,6.20
2022-08-22T09:10:23.603Z,7.22
2022-08-22T09:13:18.299Z,5.63
2022-08-22T09:15:58.531Z,5.65
2022-08-22T09:18:47.449Z,6.05
2022-08-22T09:21:45.309Z,6.10
2022-08-22T09:24:23.607Z,6.10
2022-08-22T09:26:52.498Z,6.07
2022-08-22T09:29:36.407Z,5.70
2022-08-22T09:32:31.371Z,5.70
2022-08-22T09:35:02.375Z,5.67
2022-08-22T09:37:34.843Z,9.20
2022-08-22T09:40:05.555Z,5.97
2022-08-22T09:42:44.944Z,7.80
2022-08-22T09:45:32.770Z,7.70
2022-08-22T09:48:07.209Z,6.63
2022-08-22T09:50:43.088Z,5.55
2022-08-22T09:53:14.692Z,5.93
2022-08-22T09:55:50.163Z,8.48
2022-08-22T09:58:23.534Z,7.13
2022-08-22T10:00:55.304Z,5.83
2022-08-22T10:03:30.482Z,6.55
2022-08-22T10:06:00.431Z,5.70
2022-08-22T10:08:39.544Z,7.57
2022-08-22T10:11:18.957Z,6.78
2022-08-22T10:13:57.504Z,5.17
2022-08-22T10:16:37.026Z,5.55
2022-08-22T10:19:16.363Z,6.53
2022-08-22T10:21:49.353Z,6.88
2022-08-22T10:24:25.425Z,5.68
2022-08-22T10:26:55.448Z,4.97
2022-08-22T10:29:47.208Z,5.82
2022-08-22T10:32:26.925Z,6.65
2022-08-22T10:34:57.294Z,6.78
2022-08-22T10:37:30.297Z,5.63
2022-08-22T10:40:01.208Z,6.83
2022-08-22T10:42:35.391Z,7.88
2022-08-22T10:45:23.694Z,8.13
2022-08-22T10:48:22.387Z,6.53
2022-08-22T10:50:53.055Z,5.43
2022-08-22T10:53:34.933Z,6.70
2022-08-22T10:56:11.048Z,5.57
2022-08-22T10:58:41.192Z,6.50
2022-08-22T11:01:41.485Z,5.78
2022-08-22T11:04:05.812Z,6.47
2022-08-22T11:06:41.960Z,4.77
2022-08-22T11:09:19.539Z,5.25
2022-08-22T11:11:48.928Z,6.65
2022-08-22T11:14:32.117Z,6.15
2022-08-22T11:17:27.453Z,6.68
2022-08-22T11:20:03.481Z,5.88
2022-08-22T11:22:35.048Z,6.17
2022-08-22T11:25:26.943Z,5.90
2022-08-22T11:28:22.681Z,6.55
2022-08-22T11:30:58.457Z,5.72
2022-08-22T11:33:46.514Z,6.65
2022-08-22T11:36:26.335Z,5.47
2022-08-22T11:39:09.958Z,4.67
2022-08-22T11:41:52.739Z,5.40
2022-08-22T11:44:25.488Z,6.45
2022-08-22T11:46:55.072Z,5.35
2022-08-22T11:49:28.095Z,4.35
2022-08-22T11:52:03.917Z,5.47
2022-08-22T11:54:42.141Z,5.55
2022-08-22T11:57:12.581Z,6.22
2022-08-22T12:00:03.878Z,5.95
2022-08-22T12:02:36.102Z,6.88
2022-08-22T12:05:07.080Z,5.83
2022-08-22T12:07:38.588Z,5.38
2022-08-22T12:10:13.741Z,5.82
2022-08-22T12:12:53.418Z,4.80
2022-08-22T12:15:22.830Z,6.68
2022-08-22T12:18:09.741Z,4.90
2022-08-22T12:20:46.012Z,5.05
2022-08-22T12:23:43.511Z,4.47
2022-08-22T12:26:22.024Z,5.25
2022-08-22T12:28:57.616Z,5.15
2022-08-22T12:31:31.392Z,6.13
2022-08-22T12:34:04.863Z,4.47
2022-08-22T12:36:58.319Z,7.32
2022-08-22T12:39:31.740Z,5.35
2022-08-22T12:42:10.660Z,6.07
2022-08-22T12:44:42.629Z,6.57
2022-08-22T12:47:17.431Z,6.65
2022-08-22T12:49:52.846Z,5.82
2022-08-22T12:52:28.529Z,5.47
2022-08-22T12:55:10.794Z,5.22
2022-08-22T12:57:45.670Z,5.83
2022-08-22T13:00:22.751Z,7.25
2022-08-22T13:02:53.506Z,5.43
2022-08-22T13:05:22.730Z,6.03
2022-08-22T13:07:55.436Z,6.88
2022-08-22T13:10:48.195Z,6.23
2022-08-22T13:13:31.562Z,6.22
2022-08-22T13:16:06.258Z,7.20
2022-08-22T13:18:36.678Z,5.20
2022-08-22T13:21:06.435Z,6.53
2022-08-22T13:23:39.977Z,6.07
2022-08-22T13:26:12.216Z,6.25
2022-08-22T13:28:47.271Z,5.95
2022-08-22T13:31:24.737Z,5.57
2022-08-22T13:33:52.745Z,6.00
2022-08-22T13:36:22.169Z,5.67
2022-08-22T13:38:58.750Z,5.15
2022-08-22T13:41:28.285Z,5.43
2022-08-22T13:44:20.816Z,4.82
2022-08-22T13:47:13.278Z,5.15
2022-08-22T13:49:40.418Z,5.87
2022-08-22T13:52:28.764Z,4.57
2022-08-22T13:55:00.247Z,5.43
2022-08-22T13:57:30.274Z,6.28
2022-08-22T14:00:06.321Z,5.40
2022-08-22T14:02:43.228Z,5.10
2022-08-22T14:05:13.299Z,6.28
2022-08-22T14:07:44.310Z,5.50
2022-08-22T14:10:15.263Z,4.72
2022-08-22T14:12:50.871Z,5.10
2022-08-22T14:15:21.433Z,5.23
2022-08-22T14:17:52.011Z,5.05
2022-08-22T14:20:32.318Z,5.30
2022-08-22T14:23:04.221Z,5.90
2022-08-22T14:25:35.683Z,4.93
2022-08-22T14:28:06.498Z,6.40
2022-08-22T14:30:39.694Z,4.70
2022-08-22T14:33:13.825Z,5.72
2022-08-22T14:35:43.074Z,4.97
2022-08-22T14:38:17.606Z,5.50
2022-08-22T14:40:46.241Z,6.13
2022-08-22T14:43:22.544Z,4.78
2022-08-22T14:45:56.266Z,6.57
2022-08-22T14:48:29.752Z,6.43
2022-08-22T14:51:00.890Z,4.47
2022-08-22T14:53:32.671Z,5.93
2022-08-22T14:56:02.372Z,4.75
2022-08-22T14:58:31.275Z,5.95
2022-08-22T15:01:09.817Z,6.15
2022-08-22T15:03:40.441Z,4.57
2022-08-22T15:06:12.503Z,6.03
2022-08-22T15:08:42.223Z,3.90
2022-08-22T15:11:20.029Z,4.97
2022-08-22T15:13:52.147Z,4.82
2022-08-22T15:16:21.993Z,6.03
2022-08-22T15:18:51.856Z,4.20
2022-08-22T15:21:24.342Z,4.80
2022-08-22T15:23:54.014Z,5.25
2022-08-22T15:26:26.935Z,5.38
2022-08-22T15:29:04.402Z,5.70
2022-08-22T15:31:32.491Z,6.30
2022-08-22T15:34:08.866Z,4.70
2022-08-22T15:36:36.711Z,4.88
2022-08-22T15:39:19.673Z,6.93
2022-08-22T15:41:47.801Z,5.03
2022-08-22T15:44:32.566Z,5.60
2022-08-22T15:47:04.062Z,6.72
2022-08-22T15:49:36.225Z,5.88
2022-08-22T15:52:11.211Z,5.22
2022-08-22T15:54:57.625Z,6.10
2022-08-22T15:57:29.320Z,5.37
2022-08-22T15:59:57.884Z,6.50
2022-08-22T16:02:28.695Z,6.63
2022-08-22T16:05:03.185Z,5.63
2022-08-22T16:07:40.365Z,5.45
2022-08-22T16:10:10.889Z,6.97
2022-08-22T16:12:40.516Z,6.47
2022-08-22T16:15:09.131Z,7.63
2022-08-22T16:17:54.631Z,6.18
2022-08-22T16:20:41.251Z,6.28
2022-08-22T16:23:10.158Z,5.10
2022-08-22T16:25:56.403Z,6.35
2022-08-22T16:28:54.403Z,6.20
2022-08-22T16:31:18.977Z,7.20
2022-08-22T16:33:46.836Z,5.20
2022-08-22T16:36:15.796Z,4.90
2022-08-22T16:38:47.705Z,6.90
2022-08-22T16:41:33.456Z,6.63
2022-08-22T16:44:19.553Z,7.07
2022-08-22T16:46:47.488Z,7.13
2022-08-22T16:49:24.718Z,6.33
2022-08-22T16:52:10.236Z,5.88
2022-08-22T16:54:46.345Z,5.40
2022-08-22T16:57:18.983Z,6.05
2022-08-22T16:59:55.429Z,6.45
2022-08-22T17:02:40.844Z,5.37
2022-08-22T17:05:22.939Z,4.80
2022-08-22T17:07:57.224Z,6.28
2022-08-22T17:10:39.604Z,5.18
2022-08-22T17:13:14.300Z,7.10
2022-08-22T17:15:50.591Z,8.33
2022-08-22T17:18:28.053Z,7.28
2022-08-22T17:21:01.409Z,6.05
2022-08-22T17:23:36.850Z,6.32
2022-08-22T17:26:11.650Z,5.22
2022-08-22T17:28:42.094Z,5.50
2022-08-22T17:31:14.191Z,8.18
2022-08-22T17:33:56.313Z,6.32
2022-08-22T17:36:28.143Z,5.75
2022-08-22T17:39:00.572Z,5.20
2022-08-22T17:41:32.791Z,6.00
2022-08-22T17:44:05.826Z,7.47
2022-08-22T17:46:45.889Z,6.32
2022-08-22T17:49:17.395Z,6.40
2022-08-22T17:51:47.192Z,5.18
2022-08-22T17:54:17.431Z,7.03
2022-08-22T17:56:46.537Z,7.47
2022-08-22T17:59:21.405Z,6.80
2022-08-22T18:01:51.194Z,7.90
2022-08-22T18:04:22.960Z,6.93
2022-08-22T18:06:55.521Z,5.30
2022-08-22T18:09:27.391Z,8.15
2022-08-22T18:11:57.012Z,5.03
2022-08-22T18:14:29.806Z,5.38
2022-08-22T18:16:59.179Z,7.15
2022-08-22T18:19:37.415Z,5.60
2022-08-22T18:22:07.800Z,7.85
2022-08-22T18:24:39.251Z,7.18
2022-08-22T18:27:09.370Z,5.57
2022-08-22T18:30:01.305Z,4.35
2022-08-22T18:32:31.359Z,7.00
2022-08-22T18:35:04.748Z,6.28
2022-08-22T18:37:45.383Z,6.55
2022-08-22T18:40:23.353Z,6.15
2022-08-22T18:42:52.891Z,6.93
2022-08-22T18:45:44.141Z,6.33
2022-08-22T18:48:19.722Z,6.95
2022-08-22T18:50:47.345Z,6.88
2022-08-22T18:53:29.890Z,7.65
2022-08-22T18:56:01.289Z,8.05
2022-08-22T18:58:41.528Z,7.40
2022-08-22T19:01:39.353Z,7.32
2022-08-22T19:04:27.153Z,6.47
2022-08-22T19:07:10.086Z,7.85
2022-08-22T19:09:43.885Z,7.80
2022-08-22T19:12:19.024Z,6.33
2022-08-22T19:14:59.648Z,5.70
2022-08-22T19:17:44.900Z,6.47
2022-08-22T19:20:45.426Z,7.07
2022-08-22T19:23:31.553Z,6.85
2022-08-22T19:26:17.768Z,8.10
2022-08-22T19:28:45.327Z,7.53
2022-08-22T19:31:22.375Z,5.65
2022-08-22T19:33:51.951Z,5.63
2022-08-22T19:36:33.659Z,8.35
2022-08-22T19:39:01.896Z,9.63
2022-08-22T19:41:43.792Z,8.25
2022-08-22T19:44:12.215Z,7.03
2022-08-22T19:46:41.423Z,6.97
2022-08-22T19:49:23.568Z,6.63
2022-08-22T19:52:01.763Z,8.77
2022-08-22T19:54:30.640Z,7.07
2022-08-22T19:57:04.216Z,7.55
2022-08-22T19:59:38.360Z,10.98
2022-08-22T20:02:17.458Z,8.27
2022-08-22T20:05:03.863Z,10.37
2022-08-22T20:07:43.893Z,6.63
2022-08-22T20:10:18.282Z,6.78
2022-08-22T20:12:54.121Z,7.75
2022-08-22T20:15:23.659Z,8.20
2022-08-22T20:20:59.088Z,9.00
2022-08-22T20:23:30.618Z,9.57
2022-08-22T20:25:58.775Z,9.40
2022-08-22T20:28:44.977Z,9.07
2022-08-22T20:31:19.878Z,8.13
2022-08-22T20:33:47.762Z,8.80
2022-08-22T20:36:27.891Z,8.63
2022-08-22T20:39:00.540Z,7.10
2022-08-22T20:41:31.790Z,9.45
2022-08-22T20:44:02.673Z,8.57
2022-08-22T20:46:36.112Z,8.65
2022-08-22T20:49:03.854Z,9.43
2022-08-22T20:51:32.543Z,7.15
2022-08-22T20:54:02.435Z,9.98
2022-08-22T20:56:52.971Z,8.33
2022-08-22T20:59:24.296Z,7.60
2022-08-22T21:01:55.552Z,7.78
2022-08-22T21:04:26.294Z,7.03
2022-08-22T21:06:59.675Z,7.57
2022-08-22T21:09:46.579Z,9.17
2022-08-22T21:12:14.363Z,6.97
2022-08-22T21:14:46.285Z,7.50
2022-08-22T21:17:17.482Z,8.57
2022-08-22T21:19:45.039Z,10.00
2022-08-22T21:22:13.732Z,8.00
2022-08-22T21:24:42.676Z,6.43
2022-08-22T21:27:15.356Z,6.68
2022-08-22T21:29:44.123Z,7.47
2022-08-22T21:32:18.096Z,6.53
2022-08-22T21:34:46.889Z,8.83
2022-08-22T21:37:16.264Z,8.15
2022-08-22T21:39:46.744Z,5.70
2022-08-22T21:42:22.875Z,7.35
2022-08-22T21:44:55.804Z,7.03
2022-08-22T21:47:30.729Z,9.07
2022-08-22T21:49:59.881Z,7.93
2022-08-22T21:52:27.625Z,7.15
2022-08-22T21:55:12.954Z,8.05
2022-08-22T21:57:40.771Z,6.60
2022-08-22T22:00:13.366Z,8.20
2022-08-22T22:02:41.962Z,8.80
2022-08-22T22:05:12.417Z,9.35
2022-08-22T22:07:40.747Z,9.05
2022-08-22T22:10:11.039Z,7.30
2022-08-22T22:12:39.955Z,7.27
2022-08-22T22:15:08.091Z,9.20
2022-08-22T22:17:35.661Z,7.90
2022-08-22T22:20:03.588Z,9.80
2022-08-22T22:22:31.229Z,9.10
2022-08-22T22:24:58.774Z,8.40
2022-08-22T22:27:27.777Z,7.75
2022-08-22T22:29:55.321Z,8.57
2022-08-22T22:32:22.889Z,9.07
2022-08-22T22:34:50.497Z,9.57
2022-08-22T22:37:18.408Z,10.93
2022-08-22T22:39:46.097Z,8.82
2022-08-22T22:42:13.691Z,10.45
2022-08-22T22:44:46.428Z,9.48
2022-08-22T22:47:15.207Z,8.32
2022-08-22T22:49:44.745Z,9.40
2022-08-22T22:52:12.287Z,9.80
2022-08-22T22:54:41.251Z,7.03
2022-08-22T22:57:12.407Z,8.32
2022-08-22T22:59:42.245Z,10.35
2022-08-22T23:02:11.138Z,10.50
2022-08-22T23:04:39.583Z,9.40
2022-08-22T23:07:07.717Z,11.48
2022-08-22T23:09:38.683Z,12.23
2022-08-22T23:12:13.334Z,10.48
2022-08-22T23:14:42.377Z,8.57
2022-08-22T23:17:10.254Z,8.32
2022-08-22T23:19:38.859Z,8.57
2022-08-22T23:22:07.343Z,9.90
2022-08-22T23:24:35.530Z,8.85
2022-08-22T23:27:03.275Z,7.60
2022-08-22T23:29:30.878Z,8.13
2022-08-22T23:32:00.777Z,7.55
2022-08-22T23:34:32.178Z,8.07
2022-08-22T23:37:01.576Z,8.23
2022-08-22T23:39:30.234Z,8.50
2022-08-22T23:41:58.613Z,9.32
2022-08-22T23:44:27.336Z,7.80
2022-08-22T23:46:54.989Z,7.07
2022-08-22T23:49:23.936Z,9.07
2022-08-22T23:51:51.606Z,8.93
2022-08-22T23:54:19.442Z,10.00
2022-08-22T23:56:48.362Z,10.07
2022-08-22T23:59:17.754Z,11.13
